sensor_id;sensor_type;location;lat;lon;timestamp;P1;durP1;ratioP1;P2;durP2;ratioP2
4895;SDS011;2463;49.948;8.472;2023-03-03T00:01:46;102.68;;;11.05;;
4895;SDS011;2463;49.948;8.472;2023-03-03T00:04:13;105.32;;;11.52;;
4895;SDS011;2463;49.948;8.472;2023-03-03T00:06:40;103.50;;;10.57;;
4895;SDS011;2463;49.948;8.472;2023-03-03T00:09:06;104.93;;;10.48;;
4895;SDS011;2463;49.948;8.472;2023-03-03T00:11:33;101.45;;;10.00;;
4895;SDS011;2463;49.948;8.472;2023-03-03T00:13:59;101.40;;;10.32;;
4895;SDS011;2463;49.948;8.472;2023-03-03T00:16:38;104.20;;;11.73;;
4895;SDS011;2463;49.948;8.472;2023-03-03T00:19:12;109.05;;;12.10;;
4895;SDS011;2463;49.948;8.472;2023-03-03T00:21:44;102.85;;;10.27;;
4895;SDS011;2463;49.948;8.472;2023-03-03T00:26:44;106.15;;;11.40;;
4895;SDS011;2463;49.948;8.472;2023-03-03T00:29:23;104.80;;;11.20;;
4895;SDS011;2463;49.948;8.472;2023-03-03T00:31:52;106.65;;;11.38;;
4895;SDS011;2463;49.948;8.472;2023-03-03T00:34:25;104.68;;;11.75;;
4895;SDS011;2463;49.948;8.472;2023-03-03T00:36:54;102.25;;;10.15;;
4895;SDS011;2463;49.948;8.472;2023-03-03T00:39:30;106.95;;;11.50;;
4895;SDS011;2463;49.948;8.472;2023-03-03T00:42:00;106.47;;;12.27;;
4895;SDS011;2463;49.948;8.472;2023-03-03T00:44:39;105.50;;;11.02;;
4895;SDS011;2463;49.948;8.472;2023-03-03T00:52:38;107.13;;;12.25;;
4895;SDS011;2463;49.948;8.472;2023-03-03T00:55:09;108.55;;;12.77;;
4895;SDS011;2463;49.948;8.472;2023-03-03T00:57:37;111.85;;;12.70;;
4895;SDS011;2463;49.948;8.472;2023-03-03T01:00:03;107.30;;;12.55;;
4895;SDS011;2463;49.948;8.472;2023-03-03T01:02:30;103.65;;;11.57;;
4895;SDS011;2463;49.948;8.472;2023-03-03T01:04:57;107.72;;;12.85;;
4895;SDS011;2463;49.948;8.472;2023-03-03T01:07:24;111.65;;;13.35;;
4895;SDS011;2463;49.948;8.472;2023-03-03T01:09:50;106.55;;;12.27;;
4895;SDS011;2463;49.948;8.472;2023-03-03T01:12:17;108.20;;;12.30;;
4895;SDS011;2463;49.948;8.472;2023-03-03T01:14:44;112.70;;;13.80;;
4895;SDS011;2463;49.948;8.472;2023-03-03T01:17:11;106.75;;;13.10;;
4895;SDS011;2463;49.948;8.472;2023-03-03T01:19:37;115.90;;;13.50;;
4895;SDS011;2463;49.948;8.472;2023-03-03T01:22:04;111.63;;;13.15;;
4895;SDS011;2463;49.948;8.472;2023-03-03T01:24:30;112.00;;;12.23;;
4895;SDS011;2463;49.948;8.472;2023-03-03T01:26:58;106.38;;;13.02;;
4895;SDS011;2463;49.948;8.472;2023-03-03T01:29:25;104.95;;;12.60;;
4895;SDS011;2463;49.948;8.472;2023-03-03T01:31:51;106.55;;;12.50;;
4895;SDS011;2463;49.948;8.472;2023-03-03T01:34:18;108.28;;;12.90;;
4895;SDS011;2463;49.948;8.472;2023-03-03T01:36:45;121.30;;;13.32;;
4895;SDS011;2463;49.948;8.472;2023-03-03T01:39:11;109.03;;;13.70;;
4895;SDS011;2463;49.948;8.472;2023-03-03T01:41:38;112.22;;;14.30;;
4895;SDS011;2463;49.948;8.472;2023-03-03T01:44:05;116.20;;;14.77;;
4895;SDS011;2463;49.948;8.472;2023-03-03T01:46:39;112.47;;;15.02;;
4895;SDS011;2463;49.948;8.472;2023-03-03T01:49:14;118.38;;;15.75;;
4895;SDS011;2463;49.948;8.472;2023-03-03T01:51:53;111.60;;;13.80;;
4895;SDS011;2463;49.948;8.472;2023-03-03T01:54:29;112.00;;;14.23;;
4895;SDS011;2463;49.948;8.472;2023-03-03T01:57:02;112.78;;;13.05;;
4895;SDS011;2463;49.948;8.472;2023-03-03T01:59:33;112.15;;;15.05;;
4895;SDS011;2463;49.948;8.472;2023-03-03T02:02:03;112.03;;;14.00;;
4895;SDS011;2463;49.948;8.472;2023-03-03T02:04:30;111.75;;;14.07;;
4895;SDS011;2463;49.948;8.472;2023-03-03T02:07:00;112.80;;;15.73;;
4895;SDS011;2463;49.948;8.472;2023-03-03T02:17:43;116.22;;;16.70;;
4895;SDS011;2463;49.948;8.472;2023-03-03T02:26:53;113.22;;;14.52;;
4895;SDS011;2463;49.948;8.472;2023-03-03T02:29:20;111.97;;;14.55;;
4895;SDS011;2463;49.948;8.472;2023-03-03T02:31:47;109.70;;;14.70;;
4895;SDS011;2463;49.948;8.472;2023-03-03T02:34:14;111.93;;;14.50;;
4895;SDS011;2463;49.948;8.472;2023-03-03T02:36:40;115.25;;;14.20;;
4895;SDS011;2463;49.948;8.472;2023-03-03T02:39:18;110.15;;;13.93;;
4895;SDS011;2463;49.948;8.472;2023-03-03T02:42:01;107.68;;;12.65;;
4895;SDS011;2463;49.948;8.472;2023-03-03T02:44:30;111.18;;;14.18;;
4895;SDS011;2463;49.948;8.472;2023-03-03T02:46:58;112.78;;;14.05;;
4895;SDS011;2463;49.948;8.472;2023-03-03T02:49:26;113.32;;;14.40;;
4895;SDS011;2463;49.948;8.472;2023-03-03T02:51:57;110.55;;;13.40;;
4895;SDS011;2463;49.948;8.472;2023-03-03T02:54:26;109.55;;;13.50;;
4895;SDS011;2463;49.948;8.472;2023-03-03T02:56:55;113.30;;;15.70;;
4895;SDS011;2463;49.948;8.472;2023-03-03T02:59:23;117.35;;;13.90;;
4895;SDS011;2463;49.948;8.472;2023-03-03T03:01:50;112.70;;;14.13;;
4895;SDS011;2463;49.948;8.472;2023-03-03T03:04:18;111.65;;;15.30;;
4895;SDS011;2463;49.948;8.472;2023-03-03T03:06:47;114.97;;;14.20;;
4895;SDS011;2463;49.948;8.472;2023-03-03T03:09:14;110.97;;;14.10;;
4895;SDS011;2463;49.948;8.472;2023-03-03T03:11:41;107.35;;;12.90;;
4895;SDS011;2463;49.948;8.472;2023-03-03T03:14:08;112.13;;;13.27;;
4895;SDS011;2463;49.948;8.472;2023-03-03T03:16:36;112.25;;;14.27;;
4895;SDS011;2463;49.948;8.472;2023-03-03T03:19:03;112.53;;;14.18;;
4895;SDS011;2463;49.948;8.472;2023-03-03T03:21:31;111.88;;;14.27;;
4895;SDS011;2463;49.948;8.472;2023-03-03T03:23:59;112.75;;;14.30;;
4895;SDS011;2463;49.948;8.472;2023-03-03T03:26:25;112.40;;;14.95;;
4895;SDS011;2463;49.948;8.472;2023-03-03T03:28:52;116.43;;;14.20;;
4895;SDS011;2463;49.948;8.472;2023-03-03T03:31:19;113.93;;;15.77;;
4895;SDS011;2463;49.948;8.472;2023-03-03T03:33:47;116.65;;;16.70;;
4895;SDS011;2463;49.948;8.472;2023-03-03T03:36:14;117.97;;;15.07;;
4895;SDS011;2463;49.948;8.472;2023-03-03T03:38:41;110.75;;;14.63;;
4895;SDS011;2463;49.948;8.472;2023-03-03T03:41:08;112.07;;;15.13;;
4895;SDS011;2463;49.948;8.472;2023-03-03T03:43:36;115.15;;;14.20;;
4895;SDS011;2463;49.948;8.472;2023-03-03T03:46:03;112.20;;;14.98;;
4895;SDS011;2463;49.948;8.472;2023-03-03T03:48:30;111.47;;;14.38;;
4895;SDS011;2463;49.948;8.472;2023-03-03T03:50:56;110.28;;;14.48;;
4895;SDS011;2463;49.948;8.472;2023-03-03T03:53:23;113.88;;;14.32;;
4895;SDS011;2463;49.948;8.472;2023-03-03T03:55:50;116.75;;;14.75;;
4895;SDS011;2463;49.948;8.472;2023-03-03T03:58:17;112.95;;;14.65;;
4895;SDS011;2463;49.948;8.472;2023-03-03T04:00:44;109.85;;;14.30;;
4895;SDS011;2463;49.948;8.472;2023-03-03T04:03:11;114.88;;;15.18;;
4895;SDS011;2463;49.948;8.472;2023-03-03T04:05:40;113.20;;;16.25;;
4895;SDS011;2463;49.948;8.472;2023-03-03T04:08:07;117.13;;;15.75;;
4895;SDS011;2463;49.948;8.472;2023-03-03T04:10:34;112.05;;;14.48;;
4895;SDS011;2463;49.948;8.472;2023-03-03T04:13:00;111.68;;;14.40;;
4895;SDS011;2463;49.948;8.472;2023-03-03T04:17:55;111.70;;;14.65;;
4895;SDS011;2463;49.948;8.472;2023-03-03T04:20:22;118.55;;;14.82;;
4895;SDS011;2463;49.948;8.472;2023-03-03T04:22:48;113.85;;;15.00;;
4895;SDS011;2463;49.948;8.472;2023-03-03T04:25:15;116.75;;;16.27;;
4895;SDS011;2463;49.948;8.472;2023-03-03T04:27:42;108.38;;;14.40;;
4895;SDS011;2463;49.948;8.472;2023-03-03T04:30:10;118.53;;;14.50;;
4895;SDS011;2463;49.948;8.472;2023-03-03T04:32:38;115.03;;;15.23;;
4895;SDS011;2463;49.948;8.472;2023-03-03T04:35:05;113.03;;;14.68;;
4895;SDS011;2463;49.948;8.472;2023-03-03T04:37:34;119.80;;;16.80;;
4895;SDS011;2463;49.948;8.472;2023-03-03T04:40:02;118.15;;;16.13;;
4895;SDS011;2463;49.948;8.472;2023-03-03T04:42:32;114.47;;;16.08;;
4895;SDS011;2463;49.948;8.472;2023-03-03T04:44:59;115.50;;;16.67;;
4895;SDS011;2463;49.948;8.472;2023-03-03T04:47:26;115.45;;;15.60;;
4895;SDS011;2463;49.948;8.472;2023-03-03T04:49:53;118.72;;;16.30;;
4895;SDS011;2463;49.948;8.472;2023-03-03T04:52:19;119.07;;;16.63;;
4895;SDS011;2463;49.948;8.472;2023-03-03T04:54:46;116.53;;;16.33;;
4895;SDS011;2463;49.948;8.472;2023-03-03T04:57:13;114.13;;;15.02;;
4895;SDS011;2463;49.948;8.472;2023-03-03T04:59:39;117.60;;;15.32;;
4895;SDS011;2463;49.948;8.472;2023-03-03T05:02:06;113.93;;;14.40;;
4895;SDS011;2463;49.948;8.472;2023-03-03T05:04:33;117.78;;;15.75;;
4895;SDS011;2463;49.948;8.472;2023-03-03T05:07:00;117.13;;;15.50;;
4895;SDS011;2463;49.948;8.472;2023-03-03T05:09:27;117.20;;;15.57;;
4895;SDS011;2463;49.948;8.472;2023-03-03T05:11:54;115.95;;;15.85;;
4895;SDS011;2463;49.948;8.472;2023-03-03T05:14:20;118.97;;;16.77;;
4895;SDS011;2463;49.948;8.472;2023-03-03T05:16:47;118.88;;;16.65;;
4895;SDS011;2463;49.948;8.472;2023-03-03T05:19:14;119.22;;;16.20;;
4895;SDS011;2463;49.948;8.472;2023-03-03T05:21:41;112.72;;;15.75;;
4895;SDS011;2463;49.948;8.472;2023-03-03T05:24:11;117.75;;;16.40;;
4895;SDS011;2463;49.948;8.472;2023-03-03T05:26:39;120.05;;;16.63;;
4895;SDS011;2463;49.948;8.472;2023-03-03T05:29:06;126.18;;;17.38;;
4895;SDS011;2463;49.948;8.472;2023-03-03T05:31:33;117.35;;;16.00;;
4895;SDS011;2463;49.948;8.472;2023-03-03T05:34:00;118.90;;;16.90;;
4895;SDS011;2463;49.948;8.472;2023-03-03T05:36:27;116.07;;;15.77;;
4895;SDS011;2463;49.948;8.472;2023-03-03T05:38:54;120.50;;;17.10;;
4895;SDS011;2463;49.948;8.472;2023-03-03T05:41:20;115.93;;;16.92;;
4895;SDS011;2463;49.948;8.472;2023-03-03T05:43:47;119.40;;;17.10;;
4895;SDS011;2463;49.948;8.472;2023-03-03T05:46:14;123.90;;;15.93;;
4895;SDS011;2463;49.948;8.472;2023-03-03T05:48:41;122.88;;;18.75;;
4895;SDS011;2463;49.948;8.472;2023-03-03T05:51:08;121.95;;;18.35;;
4895;SDS011;2463;49.948;8.472;2023-03-03T05:53:34;126.57;;;17.20;;
4895;SDS011;2463;49.948;8.472;2023-03-03T05:56:01;122.90;;;18.08;;
4895;SDS011;2463;49.948;8.472;2023-03-03T05:58:28;127.63;;;17.70;;
4895;SDS011;2463;49.948;8.472;2023-03-03T06:00:55;118.32;;;17.55;;
4895;SDS011;2463;49.948;8.472;2023-03-03T06:03:22;121.78;;;17.80;;
4895;SDS011;2463;49.948;8.472;2023-03-03T06:05:48;121.38;;;17.52;;
4895;SDS011;2463;49.948;8.472;2023-03-03T06:08:15;134.77;;;21.45;;
4895;SDS011;2463;49.948;8.472;2023-03-03T06:10:42;124.82;;;16.92;;
4895;SDS011;2463;49.948;8.472;2023-03-03T06:13:09;128.82;;;19.35;;
4895;SDS011;2463;49.948;8.472;2023-03-03T06:15:35;124.25;;;17.83;;
4895;SDS011;2463;49.948;8.472;2023-03-03T06:18:03;127.45;;;19.83;;
4895;SDS011;2463;49.948;8.472;2023-03-03T06:20:30;123.30;;;18.40;;
4895;SDS011;2463;49.948;8.472;2023-03-03T06:22:58;122.00;;;18.25;;
4895;SDS011;2463;49.948;8.472;2023-03-03T06:25:24;121.28;;;17.65;;
4895;SDS011;2463;49.948;8.472;2023-03-03T06:27:51;127.25;;;16.45;;
4895;SDS011;2463;49.948;8.472;2023-03-03T06:30:18;123.30;;;16.90;;
4895;SDS011;2463;49.948;8.472;2023-03-03T06:32:45;124.50;;;18.38;;
4895;SDS011;2463;49.948;8.472;2023-03-03T06:35:12;123.43;;;19.55;;
4895;SDS011;2463;49.948;8.472;2023-03-03T06:37:38;127.18;;;20.70;;
4895;SDS011;2463;49.948;8.472;2023-03-03T06:40:05;123.78;;;18.77;;
4895;SDS011;2463;49.948;8.472;2023-03-03T06:42:33;138.75;;;21.77;;
4895;SDS011;2463;49.948;8.472;2023-03-03T06:44:59;136.60;;;21.05;;
4895;SDS011;2463;49.948;8.472;2023-03-03T06:47:26;128.95;;;20.38;;
4895;SDS011;2463;49.948;8.472;2023-03-03T06:49:53;134.77;;;23.33;;
4895;SDS011;2463;49.948;8.472;2023-03-03T06:52:21;130.43;;;21.00;;
4895;SDS011;2463;49.948;8.472;2023-03-03T06:54:54;136.13;;;24.38;;
4895;SDS011;2463;49.948;8.472;2023-03-03T06:57:29;133.45;;;20.05;;
4895;SDS011;2463;49.948;8.472;2023-03-03T07:00:40;127.05;;;18.63;;
4895;SDS011;2463;49.948;8.472;2023-03-03T07:02:53;133.48;;;21.40;;
4895;SDS011;2463;49.948;8.472;2023-03-03T07:05:25;130.60;;;20.80;;
4895;SDS011;2463;49.948;8.472;2023-03-03T07:07:56;140.73;;;22.33;;
4895;SDS011;2463;49.948;8.472;2023-03-03T07:10:24;132.02;;;18.95;;
4895;SDS011;2463;49.948;8.472;2023-03-03T07:13:01;132.10;;;21.50;;
4895;SDS011;2463;49.948;8.472;2023-03-03T07:15:41;133.55;;;21.95;;
4895;SDS011;2463;49.948;8.472;2023-03-03T07:18:20;131.50;;;21.75;;
4895;SDS011;2463;49.948;8.472;2023-03-03T07:21:16;132.55;;;22.13;;
4895;SDS011;2463;49.948;8.472;2023-03-03T07:23:50;132.23;;;20.98;;
4895;SDS011;2463;49.948;8.472;2023-03-03T07:28:49;130.50;;;20.60;;
4895;SDS011;2463;49.948;8.472;2023-03-03T07:31:30;128.73;;;21.75;;
4895;SDS011;2463;49.948;8.472;2023-03-03T07:34:49;129.60;;;20.55;;
4895;SDS011;2463;49.948;8.472;2023-03-03T07:36:53;126.25;;;19.80;;
4895;SDS011;2463;49.948;8.472;2023-03-03T07:39:34;131.00;;;21.70;;
4895;SDS011;2463;49.948;8.472;2023-03-03T07:42:11;127.60;;;19.85;;
4895;SDS011;2463;49.948;8.472;2023-03-03T07:44:54;137.95;;;21.65;;
4895;SDS011;2463;49.948;8.472;2023-03-03T07:47:24;130.93;;;21.05;;
4895;SDS011;2463;49.948;8.472;2023-03-03T07:49:55;127.93;;;18.77;;
4895;SDS011;2463;49.948;8.472;2023-03-03T07:54:54;132.98;;;21.73;;
4895;SDS011;2463;49.948;8.472;2023-03-03T08:03:03;122.57;;;18.92;;
4895;SDS011;2463;49.948;8.472;2023-03-03T08:05:39;128.00;;;20.17;;
4895;SDS011;2463;49.948;8.472;2023-03-03T08:13:18;130.40;;;21.33;;
4895;SDS011;2463;49.948;8.472;2023-03-03T08:15:55;125.53;;;19.63;;
4895;SDS011;2463;49.948;8.472;2023-03-03T08:18:33;135.02;;;20.10;;
4895;SDS011;2463;49.948;8.472;2023-03-03T08:21:13;123.65;;;17.80;;
4895;SDS011;2463;49.948;8.472;2023-03-03T08:23:44;127.80;;;20.48;;
4895;SDS011;2463;49.948;8.472;2023-03-03T08:26:11;126.88;;;18.95;;
4895;SDS011;2463;49.948;8.472;2023-03-03T08:28:39;123.93;;;19.90;;
4895;SDS011;2463;49.948;8.472;2023-03-03T08:31:06;128.40;;;21.08;;
4895;SDS011;2463;49.948;8.472;2023-03-03T08:33:50;123.15;;;20.80;;
4895;SDS011;2463;49.948;8.472;2023-03-03T08:36:16;123.43;;;19.30;;
4895;SDS011;2463;49.948;8.472;2023-03-03T08:38:44;119.07;;;19.35;;
4895;SDS011;2463;49.948;8.472;2023-03-03T08:41:10;125.43;;;19.50;;
4895;SDS011;2463;49.948;8.472;2023-03-03T08:43:37;124.85;;;20.73;;
4895;SDS011;2463;49.948;8.472;2023-03-03T08:46:05;122.10;;;19.33;;
4895;SDS011;2463;49.948;8.472;2023-03-03T08:48:32;122.82;;;20.73;;
4895;SDS011;2463;49.948;8.472;2023-03-03T08:50:59;123.03;;;21.50;;
4895;SDS011;2463;49.948;8.472;2023-03-03T08:53:26;116.13;;;18.80;;
4895;SDS011;2463;49.948;8.472;2023-03-03T08:55:54;116.97;;;19.30;;
4895;SDS011;2463;49.948;8.472;2023-03-03T08:58:21;117.07;;;18.75;;
4895;SDS011;2463;49.948;8.472;2023-03-03T09:00:59;119.90;;;19.77;;
4895;SDS011;2463;49.948;8.472;2023-03-03T09:03:26;112.38;;;18.05;;
4895;SDS011;2463;49.948;8.472;2023-03-03T09:05:53;116.65;;;19.60;;
4895;SDS011;2463;49.948;8.472;2023-03-03T09:08:20;118.60;;;22.10;;
4895;SDS011;2463;49.948;8.472;2023-03-03T09:10:46;116.90;;;20.40;;
4895;SDS011;2463;49.948;8.472;2023-03-03T09:13:14;110.20;;;18.40;;
4895;SDS011;2463;49.948;8.472;2023-03-03T09:15:44;112.47;;;18.73;;
4895;SDS011;2463;49.948;8.472;2023-03-03T09:20:48;117.10;;;20.37;;
4895;SDS011;2463;49.948;8.472;2023-03-03T09:25:49;111.43;;;19.73;;
4895;SDS011;2463;49.948;8.472;2023-03-03T09:28:22;117.97;;;20.87;;
4895;SDS011;2463;49.948;8.472;2023-03-03T09:30:58;112.10;;;20.23;;
4895;SDS011;2463;49.948;8.472;2023-03-03T09:33:27;112.27;;;19.43;;
4895;SDS011;2463;49.948;8.472;2023-03-03T09:36:18;108.30;;;19.27;;
4895;SDS011;2463;49.948;8.472;2023-03-03T09:38:46;108.70;;;18.03;;
4895;SDS011;2463;49.948;8.472;2023-03-03T09:49:40;111.90;;;19.70;;
4895;SDS011;2463;49.948;8.472;2023-03-03T09:52:36;108.53;;;20.10;;
4895;SDS011;2463;49.948;8.472;2023-03-03T10:01:08;107.80;;;18.60;;
4895;SDS011;2463;49.948;8.472;2023-03-03T10:06:37;108.40;;;18.50;;
4895;SDS011;2463;49.948;8.472;2023-03-03T10:14:34;108.80;;;17.67;;
4895;SDS011;2463;49.948;8.472;2023-03-03T10:23:20;106.07;;;18.70;;
4895;SDS011;2463;49.948;8.472;2023-03-03T10:29:04;108.37;;;19.40;;
4895;SDS011;2463;49.948;8.472;2023-03-03T10:31:27;101.47;;;16.80;;
4895;SDS011;2463;49.948;8.472;2023-03-03T10:34:27;105.97;;;17.80;;
4895;SDS011;2463;49.948;8.472;2023-03-03T10:39:58;100.67;;;16.40;;
4895;SDS011;2463;49.948;8.472;2023-03-03T10:42:40;101.33;;;17.30;;
4895;SDS011;2463;49.948;8.472;2023-03-03T10:53:54;104.37;;;17.47;;
4895;SDS011;2463;49.948;8.472;2023-03-03T11:02:20;98.70;;;14.53;;
4895;SDS011;2463;49.948;8.472;2023-03-03T11:08:08;97.17;;;14.47;;
4895;SDS011;2463;49.948;8.472;2023-03-03T11:10:47;98.20;;;15.37;;
4895;SDS011;2463;49.948;8.472;2023-03-03T11:24:18;95.60;;;14.30;;
4895;SDS011;2463;49.948;8.472;2023-03-03T11:33:43;94.73;;;14.00;;
4895;SDS011;2463;49.948;8.472;2023-03-03T11:47:21;92.07;;;12.97;;
4895;SDS011;2463;49.948;8.472;2023-03-03T11:49:59;93.80;;;13.20;;
4895;SDS011;2463;49.948;8.472;2023-03-03T11:55:38;93.90;;;13.33;;
4895;SDS011;2463;49.948;8.472;2023-03-03T12:12:15;92.40;;;12.40;;
4895;SDS011;2463;49.948;8.472;2023-03-03T12:14:53;94.97;;;12.50;;
4895;SDS011;2463;49.948;8.472;2023-03-03T12:26:10;96.33;;;12.97;;
4895;SDS011;2463;49.948;8.472;2023-03-03T12:28:43;93.40;;;12.80;;
4895;SDS011;2463;49.948;8.472;2023-03-03T12:31:23;94.83;;;12.00;;
4895;SDS011;2463;49.948;8.472;2023-03-03T12:34:01;93.37;;;11.40;;
4895;SDS011;2463;49.948;8.472;2023-03-03T12:47:28;96.73;;;12.40;;
4895;SDS011;2463;49.948;8.472;2023-03-03T12:58:24;94.23;;;11.10;;
4895;SDS011;2463;49.948;8.472;2023-03-03T13:06:36;99.13;;;12.43;;
4895;SDS011;2463;49.948;8.472;2023-03-03T13:14:23;99.33;;;12.70;;
4895;SDS011;2463;49.948;8.472;2023-03-03T13:19:53;99.50;;;12.33;;
4895;SDS011;2463;49.948;8.472;2023-03-03T13:31:18;104.47;;;13.27;;
4895;SDS011;2463;49.948;8.472;2023-03-03T13:33:51;102.77;;;12.90;;
4895;SDS011;2463;49.948;8.472;2023-03-03T13:36:22;100.87;;;13.40;;
4895;SDS011;2463;49.948;8.472;2023-03-03T13:45:00;101.87;;;12.30;;
4895;SDS011;2463;49.948;8.472;2023-03-03T13:47:41;102.80;;;13.10;;
4895;SDS011;2463;49.948;8.472;2023-03-03T13:50:26;102.07;;;12.13;;
4895;SDS011;2463;49.948;8.472;2023-03-03T13:53:06;104.70;;;12.67;;
4895;SDS011;2463;49.948;8.472;2023-03-03T13:58:28;100.73;;;11.60;;
4895;SDS011;2463;49.948;8.472;2023-03-03T14:01:05;101.43;;;12.47;;
4895;SDS011;2463;49.948;8.472;2023-03-03T14:06:14;109.03;;;14.23;;
4895;SDS011;2463;49.948;8.472;2023-03-03T14:08:59;104.65;;;13.35;;
4895;SDS011;2463;49.948;8.472;2023-03-03T14:12:25;100.85;;;11.70;;
4895;SDS011;2463;49.948;8.472;2023-03-03T14:18:28;103.40;;;12.50;;
4895;SDS011;2463;49.948;8.472;2023-03-03T14:20:30;103.78;;;12.57;;
4895;SDS011;2463;49.948;8.472;2023-03-03T14:23:18;111.35;;;13.68;;
4895;SDS011;2463;49.948;8.472;2023-03-03T14:25:55;104.38;;;12.00;;
4895;SDS011;2463;49.948;8.472;2023-03-03T14:28:27;103.95;;;12.73;;
4895;SDS011;2463;49.948;8.472;2023-03-03T14:31:09;108.30;;;13.77;;
4895;SDS011;2463;49.948;8.472;2023-03-03T14:34:08;103.32;;;12.57;;
4895;SDS011;2463;49.948;8.472;2023-03-03T14:36:49;106.65;;;12.10;;
4895;SDS011;2463;49.948;8.472;2023-03-03T14:42:03;105.40;;;12.75;;
4895;SDS011;2463;49.948;8.472;2023-03-03T14:47:21;104.93;;;13.32;;
4895;SDS011;2463;49.948;8.472;2023-03-03T14:49:54;105.13;;;12.80;;
4895;SDS011;2463;49.948;8.472;2023-03-03T14:52:26;105.72;;;13.75;;
4895;SDS011;2463;49.948;8.472;2023-03-03T14:54:59;106.00;;;13.43;;
4895;SDS011;2463;49.948;8.472;2023-03-03T14:57:40;104.75;;;12.75;;
4895;SDS011;2463;49.948;8.472;2023-03-03T15:05:19;113.35;;;17.27;;
4895;SDS011;2463;49.948;8.472;2023-03-03T15:07:52;116.85;;;18.17;;
4895;SDS011;2463;49.948;8.472;2023-03-03T15:10:38;117.50;;;18.85;;
4895;SDS011;2463;49.948;8.472;2023-03-03T15:13:09;116.15;;;18.77;;
4895;SDS011;2463;49.948;8.472;2023-03-03T15:18:25;111.47;;;17.25;;
4895;SDS011;2463;49.948;8.472;2023-03-03T15:34:43;104.93;;;13.30;;
4895;SDS011;2463;49.948;8.472;2023-03-03T16:00:19;102.28;;;10.50;;
4895;SDS011;2463;49.948;8.472;2023-03-03T16:02:51;100.28;;;9.70;;
4895;SDS011;2463;49.948;8.472;2023-03-03T16:05:51;101.35;;;9.15;;
4895;SDS011;2463;49.948;8.472;2023-03-03T16:10:59;99.70;;;9.45;;
4895;SDS011;2463;49.948;8.472;2023-03-03T16:19:02;105.15;;;10.25;;
4895;SDS011;2463;49.948;8.472;2023-03-03T16:27:26;100.63;;;8.70;;
4895;SDS011;2463;49.948;8.472;2023-03-03T16:30:34;98.93;;;9.60;;
4895;SDS011;2463;49.948;8.472;2023-03-03T16:33:20;99.95;;;9.15;;
4895;SDS011;2463;49.948;8.472;2023-03-03T16:38:28;97.72;;;8.57;;
4895;SDS011;2463;49.948;8.472;2023-03-03T16:41:03;98.78;;;8.60;;
4895;SDS011;2463;49.948;8.472;2023-03-03T16:47:11;99.32;;;9.23;;
4895;SDS011;2463;49.948;8.472;2023-03-03T16:54:34;96.90;;;8.55;;
4895;SDS011;2463;49.948;8.472;2023-03-03T16:57:22;99.28;;;8.55;;
4895;SDS011;2463;49.948;8.472;2023-03-03T17:03:19;100.75;;;9.27;;
4895;SDS011;2463;49.948;8.472;2023-03-03T17:06:02;101.35;;;8.93;;
4895;SDS011;2463;49.948;8.472;2023-03-03T17:09:07;98.97;;;8.55;;
4895;SDS011;2463;49.948;8.472;2023-03-03T17:14:41;100.05;;;8.00;;
4895;SDS011;2463;49.948;8.472;2023-03-03T17:17:41;101.47;;;9.82;;
4895;SDS011;2463;49.948;8.472;2023-03-03T17:23:08;98.68;;;8.52;;
4895;SDS011;2463;49.948;8.472;2023-03-03T17:42:43;99.68;;;8.25;;
4895;SDS011;2463;49.948;8.472;2023-03-03T17:45:17;100.70;;;8.73;;
4895;SDS011;2463;49.948;8.472;2023-03-03T17:50:35;97.20;;;7.72;;
4895;SDS011;2463;49.948;8.472;2023-03-03T17:53:11;101.28;;;8.13;;
4895;SDS011;2463;49.948;8.472;2023-03-03T18:07:03;100.07;;;8.20;;
4895;SDS011;2463;49.948;8.472;2023-03-03T18:12:30;99.90;;;8.35;;
4895;SDS011;2463;49.948;8.472;2023-03-03T18:15:45;100.50;;;7.97;;
4895;SDS011;2463;49.948;8.472;2023-03-03T18:21:34;102.35;;;8.10;;
4895;SDS011;2463;49.948;8.472;2023-03-03T18:30:20;100.78;;;8.30;;
4895;SDS011;2463;49.948;8.472;2023-03-03T18:35:27;101.93;;;8.88;;
4895;SDS011;2463;49.948;8.472;2023-03-03T18:48:51;101.47;;;8.68;;
4895;SDS011;2463;49.948;8.472;2023-03-03T19:02:17;100.80;;;8.98;;
4895;SDS011;2463;49.948;8.472;2023-03-03T19:05:19;100.32;;;8.82;;
4895;SDS011;2463;49.948;8.472;2023-03-03T19:07:51;98.35;;;8.90;;
4895;SDS011;2463;49.948;8.472;2023-03-03T19:16:02;101.60;;;9.45;;
4895;SDS011;2463;49.948;8.472;2023-03-03T19:21:30;99.18;;;8.57;;
4895;SDS011;2463;49.948;8.472;2023-03-03T19:23:59;101.18;;;8.60;;
4895;SDS011;2463;49.948;8.472;2023-03-03T19:32:16;99.57;;;8.52;;
4895;SDS011;2463;49.948;8.472;2023-03-03T19:43:50;101.03;;;8.65;;
4895;SDS011;2463;49.948;8.472;2023-03-03T19:46:32;103.82;;;8.70;;
4895;SDS011;2463;49.948;8.472;2023-03-03T19:51:37;103.97;;;8.55;;
4895;SDS011;2463;49.948;8.472;2023-03-03T19:57:38;102.53;;;8.85;;
4895;SDS011;2463;49.948;8.472;2023-03-03T20:00:42;101.30;;;8.80;;
4895;SDS011;2463;49.948;8.472;2023-03-03T20:14:34;99.38;;;7.93;;
4895;SDS011;2463;49.948;8.472;2023-03-03T20:17:22;102.20;;;9.13;;
4895;SDS011;2463;49.948;8.472;2023-03-03T20:25:49;98.45;;;8.00;;
4895;SDS011;2463;49.948;8.472;2023-03-03T20:28:45;98.35;;;8.90;;
4895;SDS011;2463;49.948;8.472;2023-03-03T20:36:47;102.00;;;8.57;;
4895;SDS011;2463;49.948;8.472;2023-03-03T20:42:21;106.93;;;9.55;;
4895;SDS011;2463;49.948;8.472;2023-03-03T20:50:52;104.10;;;8.40;;
4895;SDS011;2463;49.948;8.472;2023-03-03T20:56:35;100.68;;;8.95;;
4895;SDS011;2463;49.948;8.472;2023-03-03T21:04:30;97.57;;;8.25;;
4895;SDS011;2463;49.948;8.472;2023-03-03T21:07:00;104.35;;;9.10;;
4895;SDS011;2463;49.948;8.472;2023-03-03T21:09:32;101.13;;;8.60;;
4895;SDS011;2463;49.948;8.472;2023-03-03T21:12:07;103.35;;;9.68;;
4895;SDS011;2463;49.948;8.472;2023-03-03T21:14:58;100.45;;;9.48;;
4895;SDS011;2463;49.948;8.472;2023-03-03T21:17:26;101.65;;;8.50;;
4895;SDS011;2463;49.948;8.472;2023-03-03T21:19:54;98.13;;;8.23;;
4895;SDS011;2463;49.948;8.472;2023-03-03T21:22:41;104.30;;;8.65;;
4895;SDS011;2463;49.948;8.472;2023-03-03T21:25:10;102.07;;;8.77;;
4895;SDS011;2463;49.948;8.472;2023-03-03T21:38:57;101.25;;;9.35;;
4895;SDS011;2463;49.948;8.472;2023-03-03T21:41:24;108.20;;;9.48;;
4895;SDS011;2463;49.948;8.472;2023-03-03T21:43:51;104.90;;;10.90;;
4895;SDS011;2463;49.948;8.472;2023-03-03T21:46:19;102.03;;;9.63;;
4895;SDS011;2463;49.948;8.472;2023-03-03T21:48:48;100.95;;;9.65;;
4895;SDS011;2463;49.948;8.472;2023-03-03T21:51:18;102.13;;;11.40;;
4895;SDS011;2463;49.948;8.472;2023-03-03T21:53:46;102.80;;;9.93;;
4895;SDS011;2463;49.948;8.472;2023-03-03T21:56:13;109.13;;;10.55;;
4895;SDS011;2463;49.948;8.472;2023-03-03T21:58:40;100.93;;;9.55;;
4895;SDS011;2463;49.948;8.472;2023-03-03T22:01:07;103.15;;;10.60;;
4895;SDS011;2463;49.948;8.472;2023-03-03T22:03:34;107.38;;;11.20;;
4895;SDS011;2463;49.948;8.472;2023-03-03T22:06:01;106.50;;;10.95;;
4895;SDS011;2463;49.948;8.472;2023-03-03T22:08:28;106.72;;;11.20;;
4895;SDS011;2463;49.948;8.472;2023-03-03T22:10:55;105.32;;;10.82;;
4895;SDS011;2463;49.948;8.472;2023-03-03T22:13:23;104.57;;;10.85;;
4895;SDS011;2463;49.948;8.472;2023-03-03T22:15:51;113.50;;;11.80;;
4895;SDS011;2463;49.948;8.472;2023-03-03T22:18:18;107.75;;;12.02;;
4895;SDS011;2463;49.948;8.472;2023-03-03T22:20:45;107.95;;;11.45;;
4895;SDS011;2463;49.948;8.472;2023-03-03T22:23:13;110.18;;;11.90;;
4895;SDS011;2463;49.948;8.472;2023-03-03T22:25:40;110.50;;;13.00;;
4895;SDS011;2463;49.948;8.472;2023-03-03T22:28:07;109.15;;;12.07;;
4895;SDS011;2463;49.948;8.472;2023-03-03T22:30:34;112.63;;;12.35;;